Herschel Island, Yukon

Past 24 Hour Conditions

This table is a summary of hourly weather conditions for the past 24 hours. This summary includes the following parameters: temperature, humidity, dew point, wind speed and direction, air pressure, visibility and/or wind chill and humidex.
Date / Time
(PDT)
Conditions Temp (°F) Humidity (%) Dew Point (°F) Wind (mph) Pressure (inches) Vis (mi) Wind Chill
24 April 2014
13:00 N/A 19 95 18 SE 2 29.9 N/A 16
12:00 N/A 19 95 17 calm 29.9 N/A 17
11:00 N/A 18   94 17 E 3 29.9 N/A 14
10:00 N/A 18   94 17 ESE 5 29.9 N/A 11
9:00 N/A 18   94 17 ESE 2 29.9 N/A 15
8:00 N/A 18   94 17 calm 29.9 N/A *
7:00 N/A 19 94 17 W 3 29.9 N/A 14
6:00 N/A 19 94 18 NW 2 29.9 N/A 16
5:00 N/A 19 95 18 SW 5 29.9 N/A 13
4:00 N/A 20 95 19 SSW 3 29.9 N/A 15
3:00 N/A 21 96 19 SE 4 29.9 N/A 15
2:00 N/A 21 96 20 ESE 12 29.9 N/A 9
1:00 N/A 21 96 20 ESE 12 29.9 N/A 9
00:00 N/A 21 96 21 SE 19 29.9 N/A 6
23 April 2014
23:00 N/A 22 97 21 ESE 16 29.9 N/A 8
22:00 N/A 23 97 22 SE 18 29.9 N/A 8
21:00 N/A 23 97 23 ESE 16 29.9 N/A 10
20:00 N/A 24   97 23 ESE 15 29.9 N/A 11
19:00 N/A 24   97 23 ESE 18 29.9 N/A 10
18:00 N/A 24   97 23 ESE 18 30.0 N/A 10
17:00 N/A 24   97 23 ESE 21 gust 27 30.0 N/A 9
16:00 N/A 24   96 23 ESE 25 30.0 N/A 8
15:00 N/A 23 96 22 ESE 22 gust 28 30.0 N/A 7
14:00 N/A 22 95 20 SE 25 30.0 N/A 5
13:00 N/A 20 95 19 SE 21 30.0 N/A 4
N/A
Not available
 ↑ 
Highest temperature
 ↓ 
Lowest temperature
*
Value not significant.

If you require additional historical weather information, please visit Climate Data Online.